Time;durP1;ratioP1;P1;durP2;ratioP2;P2;SDS_P1;SDS_P2;PMS_P1;PMS_P2;Temp;Humidity;BMP_temperature;BMP_pressure;BME280_temperature;BME280_humidity;BME280_pressure;Samples;Min_cycle;Max_cycle;Signal;HPM_P1;HPM_P2
2023/08/11 00:01:58;;;;;;;9.33;4.00;;;;;;;13.75;100.00;100996.63;4914223;29;20230;-71
2023/08/11 00:04:24;;;;;;;5.30;3.50;;;;;;;13.76;100.00;101003.72;4915790;29;20261;-71
2023/08/11 00:06:51;;;;;;;5.47;3.67;;;;;;;13.64;100.00;101001.84;4911349;29;20247;-71
2023/08/11 00:09:17;;;;;;;4.47;3.40;;;;;;;13.58;100.00;100998.19;4913566;29;20565;-70
2023/08/11 00:11:44;;;;;;;5.27;3.00;;;;;;;13.45;100.00;100995.41;4916960;29;20195;-71
2023/08/11 00:14:10;;;;;;;4.97;3.07;;;;;;;13.47;100.00;101000.75;4916729;29;20255;-70
2023/08/11 00:16:37;;;;;;;8.13;3.70;;;;;;;13.63;100.00;101000.06;4899999;29;20569;-70
2023/08/11 00:19:03;;;;;;;4.23;2.90;;;;;;;13.67;100.00;101000.97;4913326;29;20203;-72
2023/08/11 00:21:30;;;;;;;3.97;2.87;;;;;;;13.82;100.00;101000.25;4916552;29;20226;-71
2023/08/11 00:23:56;;;;;;;8.60;3.37;;;;;;;13.73;100.00;100999.28;4916358;29;20242;-70
2023/08/11 00:26:23;;;;;;;7.23;3.20;;;;;;;13.71;100.00;101002.81;4913372;29;20291;-71
2023/08/11 00:28:50;;;;;;;5.50;3.33;;;;;;;13.73;100.00;101001.94;4908471;29;20327;-72
2023/08/11 00:31:16;;;;;;;6.03;2.93;;;;;;;13.80;100.00;101006.44;4898076;29;20285;-71
2023/08/11 00:33:48;;;;;;;4.67;2.80;;;;;;;13.71;100.00;101002.81;4916200;29;20232;-72
2023/08/11 00:36:15;;;;;;;5.43;3.10;;;;;;;13.58;100.00;100998.19;4900066;29;20199;-72
2023/08/11 00:38:41;;;;;;;6.20;3.63;;;;;;;13.54;100.00;100999.03;4916521;29;20199;-71
2023/08/11 00:41:07;;;;;;;6.00;2.80;;;;;;;13.49;100.00;101004.31;4910029;29;20227;-72
2023/08/11 00:43:34;;;;;;;5.63;3.00;;;;;;;13.40;100.00;100999.78;4916344;29;20259;-72
2023/08/11 00:46:10;;;;;;;5.03;2.93;;;;;;;13.33;100.00;101013.00;4916282;29;20676;-71
2023/08/11 00:48:38;;;;;;;5.97;3.10;;;;;;;13.40;100.00;101006.88;4916351;29;20199;-71
2023/08/11 00:51:05;;;;;;;4.87;2.77;;;;;;;13.43;100.00;100998.94;4906974;29;20260;-71
2023/08/11 00:53:33;;;;;;;5.60;2.83;;;;;;;13.55;100.00;100999.06;4915896;29;20230;-70
2023/08/11 00:56:03;;;;;;;3.13;2.40;;;;;;;13.49;100.00;101002.56;4916048;29;20243;-72
2023/08/11 00:58:31;;;;;;;4.83;2.67;;;;;;;13.37;100.00;100998.88;4916248;29;20217;-71
2023/08/11 01:00:58;;;;;;;8.23;2.93;;;;;;;13.40;100.00;100993.56;4913043;29;20238;-70
2023/08/11 01:03:25;;;;;;;5.07;2.70;;;;;;;13.36;100.00;101005.06;4915601;29;20231;-72
2023/08/11 01:06:09;;;;;;;6.17;3.00;;;;;;;13.21;100.00;100996.88;4915854;29;20696;-72
2023/08/11 01:09:01;;;;;;;3.77;2.63;;;;;;;13.04;100.00;101004.63;4912159;29;20204;-72
2023/08/11 01:11:40;;;;;;;4.50;3.23;;;;;;;12.90;100.00;100996.47;4909612;29;20226;-71
2023/08/11 01:14:27;;;;;;;3.30;2.80;;;;;;;12.86;100.00;100995.53;4907725;29;20227;-70
2023/08/11 01:16:55;;;;;;;3.70;2.67;;;;;;;12.89;100.00;100992.03;4915984;29;20207;-72
2023/08/11 01:19:32;;;;;;;5.30;2.60;;;;;;;12.93;100.00;100990.28;4915503;29;20207;-71
2023/08/11 01:22:01;;;;;;;6.20;3.23;;;;;;;12.96;100.00;100985.91;4910559;29;20227;-70
2023/08/11 01:24:29;;;;;;;5.17;2.40;;;;;;;12.99;100.00;100993.03;4911128;29;20364;-72
2023/08/11 01:26:57;;;;;;;5.57;2.90;;;;;;;12.90;100.00;100988.50;4901724;29;20214;-72
2023/08/11 01:29:25;;;;;;;6.13;2.77;;;;;;;12.80;100.00;100984.78;4893420;29;20297;-72
2023/08/11 01:31:51;;;;;;;3.90;2.80;;;;;;;12.83;100.00;100989.28;4915881;29;20200;-70
2023/08/11 01:34:18;;;;;;;4.70;2.70;;;;;;;12.75;100.00;100991.81;4907752;29;20230;-71
2023/08/11 01:36:44;;;;;;;5.10;3.17;;;;;;;12.74;100.00;100981.16;4888232;29;20292;-72
2023/08/11 01:39:11;;;;;;;6.17;3.17;;;;;;;12.83;100.00;100986.63;4914859;29;20203;-71
2023/08/11 01:41:38;;;;;;;7.17;3.33;;;;;;;12.80;100.00;100987.44;4907928;29;20751;-72
2023/08/11 01:44:08;;;;;;;3.70;2.90;;;;;;;12.74;100.00;100984.72;4906774;29;20231;-71
2023/08/11 01:46:35;;;;;;;5.73;2.70;;;;;;;12.73;100.00;100987.34;4909554;29;20591;-70
2023/08/11 01:49:03;;;;;;;6.73;3.00;;;;;;;12.71;100.00;100978.47;4898398;29;20249;-72
2023/08/11 01:51:29;;;;;;;5.33;2.90;;;;;;;12.67;100.00;100981.94;4898430;29;20631;-72
2023/08/11 01:53:56;;;;;;;4.90;3.00;;;;;;;12.62;100.00;100981.88;4912360;29;20323;-71
2023/08/11 01:56:24;;;;;;;3.63;2.90;;;;;;;12.65;100.00;100989.00;4908344;29;20207;-71
2023/08/11 01:58:50;;;;;;;5.50;2.97;;;;;;;12.73;100.00;100979.38;4914910;29;20207;-72
2023/08/11 02:01:17;;;;;;;4.10;2.80;;;;;;;12.84;100.00;100981.34;4915112;29;20227;-70
2023/08/11 02:03:43;;;;;;;4.67;2.70;;;;;;;12.92;100.00;100977.88;4914534;29;20231;-70
2023/08/11 02:06:10;;;;;;;4.03;2.73;;;;;;;12.93;100.00;100979.66;4907609;29;20211;-71
2023/08/11 02:08:36;;;;;;;3.80;2.70;;;;;;;12.78;100.00;100967.03;4915023;29;20204;-71
2023/08/11 02:11:03;;;;;;;9.43;2.80;;;;;;;12.71;100.00;100975.81;4914769;29;20252;-72
2023/08/11 02:13:30;;;;;;;5.47;3.10;;;;;;;12.61;100.00;100973.91;4915197;29;20577;-71
2023/08/11 02:15:56;;;;;;;6.10;3.07;;;;;;;12.53;100.00;100977.34;4911793;29;20211;-71
2023/08/11 02:18:22;;;;;;;4.60;2.93;;;;;;;12.49;100.00;100979.94;4913239;29;20212;-71
2023/08/11 02:20:49;;;;;;;5.53;3.00;;;;;;;12.58;100.00;100977.41;4914340;29;20211;-70
2023/08/11 02:23:15;;;;;;;4.60;2.80;;;;;;;12.51;100.00;100981.72;4914391;29;20237;-70
2023/08/11 02:25:42;;;;;;;6.70;3.03;;;;;;;12.65;100.00;100981.03;4913213;29;20214;-72
2023/08/11 02:28:08;;;;;;;4.23;2.97;;;;;;;12.51;100.00;100981.72;4913464;29;20214;-72
2023/08/11 02:30:35;;;;;;;4.37;2.97;;;;;;;12.49;100.00;100974.63;4914729;29;20207;-71
2023/08/11 02:33:02;;;;;;;3.63;2.80;;;;;;;12.43;100.00;100971.88;4914181;29;20309;-73
2023/08/11 02:35:28;;;;;;;5.83;3.00;;;;;;;12.43;100.00;100980.72;4911964;29;20204;-72
2023/08/11 02:37:54;;;;;;;6.93;2.93;;;;;;;12.42;100.00;100968.31;4912778;29;20338;-72
2023/08/11 02:40:21;;;;;;;4.17;3.20;;;;;;;12.41;100.00;100974.50;4914509;29;20217;-72
2023/08/11 02:42:57;;;;;;;4.63;3.57;;;;;;;12.39;100.00;100968.25;4914186;29;20227;-72
2023/08/11 02:45:24;;;;;;;4.70;3.30;;;;;;;12.40;100.00;100964.72;4912578;29;20249;-72
2023/08/11 02:47:51;;;;;;;7.40;3.20;;;;;;;12.41;100.00;100968.31;4910688;29;20211;-71
2023/08/11 02:50:17;;;;;;;6.13;3.00;;;;;;;12.33;100.00;100967.25;4897694;29;20233;-71
2023/08/11 02:52:44;;;;;;;5.33;3.03;;;;;;;12.23;100.00;100961.81;4914485;29;20222;-72
2023/08/11 02:55:11;;;;;;;4.37;3.07;;;;;;;12.23;100.00;100966.22;4914789;29;20242;-71
2023/08/11 02:57:37;;;;;;;5.97;2.80;;;;;;;12.13;100.00;100964.31;4912973;29;20581;-71
2023/08/11 03:00:12;;;;;;;4.00;2.70;;;;;;;12.08;100.00;100981.94;4912151;29;20207;-71
2023/08/11 03:02:44;;;;;;;4.23;2.90;;;;;;;12.01;100.00;100975.63;4914055;29;20573;-71
2023/08/11 03:05:11;;;;;;;5.43;2.73;;;;;;;11.91;100.00;100968.34;4906925;29;20209;-72
2023/08/11 03:07:38;;;;;;;4.43;2.97;;;;;;;11.87;100.00;100980.69;4913253;29;20207;-72
2023/08/11 03:10:05;;;;;;;4.97;2.70;;;;;;;11.84;100.00;100977.97;4912900;29;20207;-72
2023/08/11 03:12:32;;;;;;;6.80;2.93;;;;;;;11.98;100.00;100982.63;4914541;29;20480;-72
2023/08/11 03:14:59;;;;;;;5.97;3.37;;;;;;;12.03;100.00;100986.28;4917248;29;20217;-72
2023/08/11 03:17:26;;;;;;;5.13;3.37;;;;;;;11.98;100.00;100986.16;4918209;29;20217;-72
2023/08/11 03:19:52;;;;;;;6.40;3.33;;;;;;;12.11;100.00;100985.53;4920203;29;20274;-71
2023/08/11 03:22:19;;;;;;;5.37;3.17;;;;;;;12.07;100.00;100980.16;4921906;29;20226;-69
2023/08/11 03:24:46;;;;;;;7.97;3.53;;;;;;;12.05;100.00;100981.88;4922264;29;20290;-72
2023/08/11 03:27:12;;;;;;;5.90;3.30;;;;;;;12.18;100.00;100991.81;4913598;29;20215;-71
2023/08/11 03:29:39;;;;;;;8.27;3.50;;;;;;;12.23;100.00;100987.47;4906087;29;20592;-71
2023/08/11 03:32:05;;;;;;;4.50;3.10;;;;;;;12.17;100.00;100990.03;4912588;29;20207;-71
2023/08/11 03:34:32;;;;;;;6.87;3.33;;;;;;;12.12;100.00;100984.66;4896331;29;20308;-71
2023/08/11 03:36:59;;;;;;;6.93;3.47;;;;;;;12.14;100.00;100967.00;4913610;29;20224;-71
2023/08/11 03:39:25;;;;;;;5.23;3.23;;;;;;;12.17;100.00;100976.75;4912620;29;20217;-71
2023/08/11 03:41:52;;;;;;;5.20;3.00;;;;;;;12.08;100.00;100979.28;4914127;29;20610;-73
2023/08/11 03:44:18;;;;;;;4.17;3.07;;;;;;;12.06;100.00;100984.56;4916086;29;20234;-72
2023/08/11 03:46:45;;;;;;;4.57;3.23;;;;;;;12.20;100.00;100984.78;4915932;29;20209;-73
2023/08/11 03:49:11;;;;;;;5.37;3.00;;;;;;;12.25;100.00;100977.78;4916353;29;20206;-71
2023/08/11 03:51:38;;;;;;;5.03;3.27;;;;;;;12.16;100.00;100994.44;4911304;29;20203;-71
2023/08/11 03:54:04;;;;;;;6.57;3.70;;;;;;;12.12;100.00;100984.66;4915938;29;20234;-71
2023/08/11 03:56:31;;;;;;;6.50;3.20;;;;;;;12.09;100.00;100989.91;4916345;29;20238;-71
2023/08/11 03:58:57;;;;;;;4.20;2.80;;;;;;;12.05;100.00;100980.13;4930346;29;20298;-71
2023/08/11 04:01:24;;;;;;;5.00;3.17;;;;;;;12.02;100.00;100988.03;4908969;29;20217;-73
2023/08/11 04:03:50;;;;;;;5.30;3.30;;;;;;;12.07;100.00;100998.72;4932467;23;1054666;-72
2023/08/11 04:06:17;;;;;;;13.90;4.70;;;;;;;11.99;100.00;100995.91;4994030;28;20330;-67
2023/08/11 04:08:44;;;;;;;5.53;3.17;;;;;;;11.97;100.00;100994.09;4993175;28;20236;-70
2023/08/11 04:11:11;;;;;;;5.30;3.10;;;;;;;11.95;100.00;100993.19;4974876;28;20206;-68
2023/08/11 04:13:37;;;;;;;6.03;3.67;;;;;;;11.94;100.00;100989.63;4976184;28;20761;-71
2023/08/11 04:16:04;;;;;;;4.83;3.10;;;;;;;11.93;100.00;100996.69;4993515;28;20991;-71
2023/08/11 04:18:30;;;;;;;6.97;3.77;;;;;;;11.98;100.00;101001.19;4993836;28;20204;-69
2023/08/11 04:20:57;;;;;;;5.67;3.47;;;;;;;12.00;100.00;100996.81;4987506;28;20213;-70
2023/08/11 04:23:23;;;;;;;4.50;3.50;;;;;;;12.02;100.00;101006.63;4991378;28;20315;-70
2023/08/11 04:25:51;;;;;;;5.47;3.23;;;;;;;12.05;100.00;101001.34;4993330;28;20267;-70
2023/08/11 04:28:18;;;;;;;4.13;3.10;;;;;;;12.10;100.00;100998.78;4993736;28;20202;-71
2023/08/11 04:30:44;;;;;;;4.80;3.27;;;;;;;12.18;100.00;101002.44;4992483;28;20290;-71
2023/08/11 04:33:12;;;;;;;5.67;3.80;;;;;;;12.29;100.00;100997.31;4991671;28;20274;-68
2023/08/11 04:35:38;;;;;;;8.87;3.40;;;;;;;12.39;100.00;101001.88;4993199;28;20239;-70
2023/08/11 04:38:05;;;;;;;7.03;3.80;;;;;;;12.47;100.00;101002.94;4993245;28;20612;-70
2023/08/11 04:40:31;;;;;;;6.03;3.20;;;;;;;12.57;100.00;101002.19;4974395;28;20205;-69
2023/08/11 04:42:58;;;;;;;6.10;3.87;;;;;;;12.69;100.00;101002.34;4990099;28;20225;-70
2023/08/11 04:45:24;;;;;;;5.37;3.30;;;;;;;12.70;100.00;100995.28;4993177;28;20286;-71
2023/08/11 04:47:50;;;;;;;5.40;3.53;;;;;;;12.81;100.00;101001.66;4992502;28;20208;-70
2023/08/11 04:50:17;;;;;;;6.73;4.13;;;;;;;12.91;100.00;101008.00;4992143;28;20205;-68
2023/08/11 04:52:44;;;;;;;6.93;3.60;;;;;;;13.03;100.00;101011.69;4987379;28;20569;-71
2023/08/11 04:55:12;;;;;;;4.63;3.10;;;;;;;13.11;100.00;101011.78;5000678;28;20627;-70
2023/08/11 04:57:39;;;;;;;7.23;3.50;;;;;;;13.24;100.00;101012.91;4975879;28;20634;-71
2023/08/11 05:00:06;;;;;;;5.00;3.40;;;;;;;13.27;100.00;101002.31;4992636;28;20300;-70
2023/08/11 05:02:33;;;;;;;5.57;3.43;;;;;;;13.35;100.00;101013.91;4991154;28;20243;-70
2023/08/11 05:04:59;;;;;;;8.60;3.80;;;;;;;13.41;100.00;101008.66;4989647;28;20282;-70
2023/08/11 05:07:26;;;;;;;5.80;3.60;;;;;;;13.46;100.00;101007.84;4992838;28;20212;-71
2023/08/11 05:09:52;;;;;;;8.47;4.10;;;;;;;13.57;100.00;101007.94;4992684;28;20334;-71
2023/08/11 05:12:19;;;;;;;5.63;3.43;;;;;;;13.75;100.00;101009.94;4975093;28;20621;-69
2023/08/11 05:14:47;;;;;;;6.53;3.70;;;;;;;13.81;100.00;101015.31;4991129;28;20708;-67
2023/08/11 05:17:13;;;;;;;5.03;3.27;;;;;;;13.82;100.00;101019.78;4992798;28;20197;-69
2023/08/11 05:19:40;;;;;;;7.10;3.70;;;;;;;13.94;100.00;101016.31;4992626;28;20507;-70
2023/08/11 05:22:06;;;;;;;6.67;3.50;;;;;;;14.01;100.00;101021.75;4991143;28;20304;-71
2023/08/11 05:24:33;;;;;;;4.43;3.37;;;;;;;14.14;100.00;101022.75;4990946;28;20252;-70
2023/08/11 05:26:59;;;;;;;6.10;3.60;;;;;;;14.22;100.00;101029.03;4992489;28;20236;-70
2023/08/11 05:29:26;;;;;;;6.67;3.40;;;;;;;14.29;100.00;101025.53;4992573;28;20201;-68
2023/08/11 05:31:52;;;;;;;6.03;3.70;;;;;;;14.41;100.00;101038.09;4974881;28;20216;-70
2023/08/11 05:34:19;;;;;;;5.97;3.90;;;;;;;14.49;100.00;101033.75;4983887;28;20221;-71
2023/08/11 05:36:45;;;;;;;6.90;3.63;;;;;;;14.54;100.00;101028.44;4988592;28;20207;-70
2023/08/11 05:39:12;;;;;;;6.13;3.77;;;;;;;14.59;100.00;101034.69;4974775;28;20740;-68
2023/08/11 05:41:39;;;;;;;5.97;3.40;;;;;;;14.63;100.00;101036.50;4992189;28;20208;-71
2023/08/11 05:44:05;;;;;;;5.77;3.50;;;;;;;14.99;100.00;101036.75;4983353;28;20229;-71
2023/08/11 05:46:31;;;;;;;6.23;3.70;;;;;;;15.10;100.00;101034.13;4997789;28;20688;-72
2023/08/11 05:48:58;;;;;;;5.73;3.47;;;;;;;15.32;100.00;101037.81;4991789;28;20240;-70
2023/08/11 05:51:24;;;;;;;3.93;2.77;;;;;;;15.47;100.00;101027.19;4991948;28;20215;-70
2023/08/11 05:53:51;;;;;;;6.83;3.40;;;;;;;15.54;100.00;101031.66;4991669;28;20259;-69
2023/08/11 05:56:20;;;;;;;7.23;2.83;;;;;;;15.52;100.00;101032.53;4986376;28;20260;-70
2023/08/11 05:58:46;;;;;;;6.23;3.37;;;;;;;15.57;100.00;101039.66;4991609;28;20611;-72
2023/08/11 06:01:12;;;;;;;4.60;3.13;;;;;;;15.62;100.00;101031.72;4983180;28;20214;-70
2023/08/11 06:03:39;;;;;;;6.57;2.93;;;;;;;15.73;100.00;101039.75;4990606;28;20308;-70
2023/08/11 06:06:05;;;;;;;4.30;3.00;;;;;;;15.79;100.00;101039.78;4989913;28;20252;-71
2023/08/11 06:08:32;;;;;;;6.97;2.90;;;;;;;15.80;100.00;101039.78;4991634;28;20197;-68
2023/08/11 06:10:58;;;;;;;5.60;3.17;;;;;;;15.84;100.00;101038.00;4991346;28;20201;-68
2023/08/11 06:13:26;;;;;;;7.60;3.33;;;;;;;15.90;100.00;101028.22;4989865;28;20221;-70
2023/08/11 06:15:53;;;;;;;6.93;2.97;;;;;;;15.96;100.00;101038.03;4991190;28;20205;-70
2023/08/11 06:18:20;;;;;;;6.10;3.03;;;;;;;16.02;100.00;101042.50;4991384;28;20670;-72
2023/08/11 06:20:47;;;;;;;5.93;3.20;;;;;;;16.01;100.00;101038.94;4991446;28;20207;-70
2023/08/11 06:23:13;;;;;;;5.30;3.13;;;;;;;15.99;100.00;101024.66;4977357;28;20307;-71
2023/08/11 06:25:40;;;;;;;7.57;3.20;;;;;;;16.15;100.00;101033.63;4991467;28;20223;-71
2023/08/11 06:28:07;;;;;;;6.17;3.30;;;;;;;16.20;100.00;101038.06;4991027;28;20263;-70
2023/08/11 06:30:33;;;;;;;4.23;2.90;;;;;;;16.30;100.00;101031.81;4990561;28;20601;-70
2023/08/11 06:33:00;;;;;;;8.30;3.30;;;;;;;16.44;100.00;101036.31;4988800;28;20207;-71
2023/08/11 06:35:26;;;;;;;8.97;2.70;;;;;;;16.52;100.00;101034.50;4989611;28;20205;-68
2023/08/11 06:37:53;;;;;;;7.33;2.80;;;;;;;16.75;100.00;101037.19;4990858;28;20584;-70
2023/08/11 06:40:19;;;;;;;7.00;3.17;;;;;;;16.80;100.00;101040.75;4990912;28;20208;-70
2023/08/11 06:42:46;;;;;;;5.40;3.10;;;;;;;16.88;100.00;101031.81;4990504;28;20723;-68
2023/08/11 06:45:12;;;;;;;7.03;3.50;;;;;;;16.97;100.00;101043.41;4989370;28;20626;-70
2023/08/11 06:47:39;;;;;;;9.17;3.27;;;;;;;17.04;100.00;101042.47;4990910;28;20232;-70
2023/08/11 06:50:06;;;;;;;6.03;3.17;;;;;;;17.14;100.00;101039.78;4990919;28;20743;-68
2023/08/11 06:52:32;;;;;;;7.70;3.27;;;;;;;17.28;100.00;101042.41;4990850;28;20207;-67
2023/08/11 06:54:58;;;;;;;5.07;3.20;;;;;;;17.44;100.00;101046.81;4988095;28;20421;-69
2023/08/11 06:57:25;;;;;;;5.63;3.13;;;;;;;17.53;100.00;101041.41;4990929;28;20205;-68
2023/08/11 06:59:51;;;;;;;5.53;3.07;;;;;;;17.66;100.00;101036.91;4990372;28;20205;-69
2023/08/11 07:02:18;;;;;;;6.87;3.57;;;;;;;17.85;100.00;101043.06;4990942;28;20221;-68
2023/08/11 07:04:44;;;;;;;5.47;3.57;;;;;;;18.00;100.00;101050.09;4983831;28;20459;-68
2023/08/11 07:07:11;;;;;;;5.33;3.33;;;;;;;18.29;100.00;101049.91;4990543;28;20200;-69
2023/08/11 07:09:37;;;;;;;6.97;3.00;;;;;;;19.53;100.00;101055.00;4990432;28;20207;-68
2023/08/11 07:12:04;;;;;;;4.23;2.87;;;;;;;21.09;100.00;101048.06;4989474;28;20220;-69
2023/08/11 07:14:31;;;;;;;7.70;3.57;;;;;;;23.27;74.56;101049.25;4972419;28;20255;-67
2023/08/11 07:16:57;;;;;;;6.40;3.70;;;;;;;24.94;61.71;101037.63;4993404;28;20599;-70
2023/08/11 07:19:24;;;;;;;6.68;3.47;;;;;;;25.94;56.30;101042.94;4990474;28;20292;-70
2023/08/11 07:21:50;;;;;;;4.57;3.40;;;;;;;27.00;52.66;101044.91;4990080;28;20665;-68
2023/08/11 07:24:17;;;;;;;5.85;2.85;;;;;;;27.58;48.78;101042.25;4984551;28;20931;-69
2023/08/11 07:26:43;;;;;;;5.38;3.70;;;;;;;26.90;48.50;101057.13;4988731;28;20201;-69
2023/08/11 07:29:10;;;;;;;8.23;3.72;;;;;;;27.54;47.64;101041.53;4972759;28;20723;-66
2023/08/11 07:31:36;;;;;;;6.88;3.53;;;;;;;27.50;46.38;101049.91;4990392;28;20197;-68
2023/08/11 07:34:03;;;;;;;7.78;3.67;;;;;;;28.28;44.98;101048.00;4989974;28;20224;-70
2023/08/11 07:36:29;;;;;;;6.28;3.60;;;;;;;28.26;45.00;101032.69;4985225;28;20208;-69
2023/08/11 07:38:56;;;;;;;6.65;4.40;;;;;;;28.36;44.48;101045.78;4988794;28;20208;-70
2023/08/11 07:41:38;;;;;;;5.47;3.95;;;;;;;28.30;44.36;101046.09;4990168;28;20680;-69
2023/08/11 07:44:04;;;;;;;4.93;3.63;;;;;;;27.41;46.23;101053.94;4989818;28;20225;-66
2023/08/11 07:46:31;;;;;;;5.88;3.92;;;;;;;27.61;46.30;101050.28;4986629;28;20197;-69
2023/08/11 07:48:57;;;;;;;5.90;3.47;;;;;;;27.81;46.02;101057.56;4975075;28;20209;-69
2023/08/11 07:51:24;;;;;;;5.25;3.28;;;;;;;27.41;46.22;101059.38;4989961;28;20653;-70
2023/08/11 07:53:51;;;;;;;7.22;3.90;;;;;;;27.28;46.28;101059.06;4989278;28;20315;-69
2023/08/11 07:56:18;;;;;;;5.78;3.70;;;;;;;27.26;46.26;101057.38;4990004;28;20296;-71
2023/08/11 07:58:46;;;;;;;5.47;3.42;;;;;;;25.82;49.58;101055.19;4978957;28;20205;-69
2023/08/11 08:01:12;;;;;;;7.05;3.65;;;;;;;24.95;52.42;101052.06;4972655;28;20204;-69
2023/08/11 08:03:39;;;;;;;7.85;3.30;;;;;;;25.32;52.40;101050.78;4989805;28;20232;-69
2023/08/11 08:06:05;;;;;;;8.80;4.10;;;;;;;25.48;52.59;101047.41;4988881;28;20669;-69
2023/08/11 08:08:33;;;;;;;8.77;3.40;;;;;;;25.39;51.43;101038.75;4991521;28;20280;-68
2023/08/11 08:11:01;;;;;;;6.60;3.67;;;;;;;25.36;51.02;101055.13;4989644;28;20205;-69
2023/08/11 08:13:28;;;;;;;5.88;4.00;;;;;;;25.01;52.76;101056.41;4989914;28;20213;-69
2023/08/11 08:15:55;;;;;;;5.40;3.33;;;;;;;24.63;53.67;101053.16;4990077;28;20201;-69
2023/08/11 08:18:21;;;;;;;7.75;3.53;;;;;;;23.96;55.56;101056.22;4984664;28;20216;-69
2023/08/11 08:20:48;;;;;;;8.35;3.30;;;;;;;23.91;56.40;101054.59;4989670;28;20201;-66
2023/08/11 08:23:15;;;;;;;7.80;3.33;;;;;;;23.96;56.70;101053.50;4990325;28;20228;-70
2023/08/11 08:25:41;;;;;;;6.72;3.17;;;;;;;23.87;57.57;101056.50;4993463;28;20220;-71
2023/08/11 08:28:10;;;;;;;6.25;3.28;;;;;;;23.90;57.15;101045.56;4984449;28;20699;-69
2023/08/11 08:30:37;;;;;;;6.10;3.03;;;;;;;23.65;58.64;101055.41;4975927;28;20296;-69
2023/08/11 08:33:05;;;;;;;4.75;3.20;;;;;;;23.47;59.07;101051.34;4993056;28;20251;-70
2023/08/11 08:35:32;;;;;;;5.47;2.90;;;;;;;23.60;59.02;101050.09;4993418;28;20700;-67
2023/08/11 08:37:59;;;;;;;6.63;2.90;;;;;;;23.71;57.96;101049.78;4985524;28;20211;-69
2023/08/11 08:40:27;;;;;;;5.93;2.97;;;;;;;23.78;56.20;101040.56;4993151;28;20207;-69
2023/08/11 08:42:53;;;;;;;7.95;3.25;;;;;;;23.82;56.70;101042.22;4993035;28;20224;-69
2023/08/11 08:45:21;;;;;;;5.85;2.90;;;;;;;24.04;56.91;101046.06;4990970;28;20215;-69
2023/08/11 08:47:49;;;;;;;4.53;2.85;;;;;;;24.03;56.50;101047.00;4993105;28;20201;-66
2023/08/11 08:50:17;;;;;;;5.35;2.90;;;;;;;24.02;55.74;101033.50;4992632;28;20241;-67
2023/08/11 08:52:44;;;;;;;6.35;3.22;;;;;;;24.03;55.44;101037.97;4963833;28;20293;-68
2023/08/11 08:55:10;;;;;;;9.32;3.25;;;;;;;24.20;56.02;101041.03;4990599;28;20275;-67
2023/08/11 08:57:37;;;;;;;7.30;3.10;;;;;;;24.35;55.38;101037.84;4993030;28;20201;-71
2023/08/11 09:00:04;;;;;;;5.00;2.83;;;;;;;24.61;53.25;101042.38;4992573;28;20201;-69
2023/08/11 09:02:31;;;;;;;4.03;3.13;;;;;;;24.77;51.19;101033.72;4992322;28;20201;-71
2023/08/11 09:04:58;;;;;;;5.75;3.00;;;;;;;24.87;50.20;101030.66;4988230;28;20240;-71
2023/08/11 09:07:24;;;;;;;3.90;2.83;;;;;;;25.07;50.73;101019.13;4992784;28;20748;-68
2023/08/11 09:09:51;;;;;;;6.10;2.75;;;;;;;25.03;48.60;101022.88;4992521;28;20226;-69
2023/08/11 09:12:17;;;;;;;5.30;2.83;;;;;;;24.99;49.58;101008.56;4990249;28;20295;-69
2023/08/11 09:14:46;;;;;;;5.07;2.92;;;;;;;24.99;50.78;101008.56;4987102;28;20650;-70
2023/08/11 09:17:12;;;;;;;4.07;2.85;;;;;;;25.05;51.06;101021.00;4992278;28;20211;-70
2023/08/11 09:19:43;;;;;;;6.35;2.97;;;;;;;25.01;52.07;101004.91;4992285;28;20225;-70
2023/08/11 09:22:10;;;;;;;5.43;2.70;;;;;;;25.30;52.24;101018.28;4987761;28;20205;-70
2023/08/11 09:24:38;;;;;;;7.45;3.03;;;;;;;25.25;52.77;101013.03;4994303;28;20216;-69
2023/08/11 09:27:06;;;;;;;5.55;3.10;;;;;;;25.25;52.91;101014.88;4992498;28;20292;-70
2023/08/11 09:29:34;;;;;;;7.00;2.80;;;;;;;25.62;52.81;101014.34;4992451;28;20231;-69
2023/08/11 09:32:03;;;;;;;4.47;2.90;;;;;;;25.87;51.73;101015.19;4984710;28;20209;-70
2023/08/11 09:34:30;;;;;;;6.20;3.35;;;;;;;26.08;50.02;101016.16;4972453;28;20704;-70
2023/08/11 09:36:56;;;;;;;5.88;3.00;;;;;;;26.20;49.32;101015.66;4992047;28;20219;-70
2023/08/11 09:39:26;;;;;;;4.97;3.08;;;;;;;26.45;48.93;101012.84;4994787;28;20209;-71
2023/08/11 09:41:53;;;;;;;5.68;3.20;;;;;;;26.61;48.95;101013.06;4992082;28;20228;-72
2023/08/11 09:44:21;;;;;;;5.80;3.08;;;;;;;26.66;48.60;101021.00;4991847;28;20221;-70
2023/08/11 09:46:48;;;;;;;11.38;3.20;;;;;;;26.80;48.71;101019.44;4992055;28;20197;-69
2023/08/11 09:49:16;;;;;;;7.75;3.05;;;;;;;26.92;48.18;101012.59;4986304;28;20216;-73
2023/08/11 09:51:43;;;;;;;5.45;2.90;;;;;;;27.11;47.26;101012.69;4992022;28;20284;-71
2023/08/11 09:54:11;;;;;;;11.05;3.40;;;;;;;27.10;48.16;101009.09;4991472;28;20253;-67
2023/08/11 09:56:41;;;;;;;4.18;2.92;;;;;;;27.22;46.94;100994.06;4988925;28;20287;-72
2023/08/11 09:59:26;;;;;;;6.95;3.03;;;;;;;27.39;46.06;101012.31;4990098;28;20652;-71
2023/08/11 10:01:59;;;;;;;3.95;2.90;;;;;;;27.43;46.77;101011.22;4991439;28;20665;-68
2023/08/11 10:04:38;;;;;;;4.30;3.03;;;;;;;27.38;46.35;101016.00;5012171;23;20369;-70
2023/08/11 10:07:10;;;;;;;4.93;2.90;;;;;;;27.60;46.71;101010.41;4986597;28;20283;-69
2023/08/11 10:09:37;;;;;;;4.15;2.72;;;;;;;27.69;46.35;101012.75;4988981;28;20205;-70
2023/08/11 10:12:06;;;;;;;3.85;2.90;;;;;;;27.85;46.09;101011.06;4991059;28;20298;-70
2023/08/11 10:14:36;;;;;;;4.93;2.63;;;;;;;28.03;46.60;101012.03;4991073;28;20715;-70
2023/08/11 10:17:03;;;;;;;5.88;2.80;;;;;;;28.21;46.09;101008.38;4991031;28;20677;-71
2023/08/11 10:19:30;;;;;;;5.43;3.15;;;;;;;27.86;45.19;101011.94;4982909;28;20283;-71
2023/08/11 10:21:57;;;;;;;6.60;3.10;;;;;;;27.96;46.45;101005.97;4990690;28;20251;-70
2023/08/11 10:24:26;;;;;;;4.90;3.08;;;;;;;28.08;45.45;101008.09;4990800;28;20231;-70
2023/08/11 10:26:52;;;;;;;5.45;2.85;;;;;;;28.23;45.91;101011.03;4991162;28;20216;-70
2023/08/11 10:29:20;;;;;;;4.30;2.67;;;;;;;28.40;45.41;101011.06;4970882;28;20677;-70
2023/08/11 10:31:55;;;;;;;5.43;2.80;;;;;;;28.44;43.85;101004.53;4994087;28;20201;-70
2023/08/11 10:34:23;;;;;;;6.22;2.72;;;;;;;28.62;45.77;100995.41;4990546;28;20218;-69
2023/08/11 10:36:52;;;;;;;4.72;2.70;;;;;;;28.76;45.56;101000.13;4990683;28;20213;-70
2023/08/11 10:39:20;;;;;;;8.00;3.00;;;;;;;28.87;45.66;100996.91;4987268;28;20258;-71
2023/08/11 10:41:47;;;;;;;5.60;3.40;;;;;;;29.07;44.64;100990.34;4995814;28;20661;-71
2023/08/11 10:44:21;;;;;;;5.20;2.80;;;;;;;29.18;45.37;100991.53;4990456;28;20224;-70
2023/08/11 10:46:49;;;;;;;8.32;3.47;;;;;;;29.26;44.57;100985.69;4991005;28;20229;-70
2023/08/11 10:49:15;;;;;;;7.80;3.25;;;;;;;29.24;45.35;100991.22;4971772;28;20256;-71
2023/08/11 10:51:42;;;;;;;6.03;2.95;;;;;;;29.36;45.61;100986.94;4985155;28;20439;-71
2023/08/11 10:54:11;;;;;;;7.10;2.83;;;;;;;29.46;45.33;100985.47;4990502;28;20294;-69
2023/08/11 10:56:42;;;;;;;6.43;2.95;;;;;;;29.50;45.59;100986.19;4990619;28;20608;-71
2023/08/11 10:59:15;;;;;;;6.70;3.17;;;;;;;29.52;45.98;100982.41;4988982;28;20205;-70
2023/08/11 11:01:47;;;;;;;8.50;3.40;;;;;;;29.66;45.38;100981.66;4983337;28;20211;-70
2023/08/11 11:04:15;;;;;;;5.15;3.00;;;;;;;29.76;46.68;100979.28;4990079;28;20236;-71
2023/08/11 11:06:47;;;;;;;5.28;2.90;;;;;;;29.84;46.12;100982.44;4973395;28;20532;-70
2023/08/11 11:09:14;;;;;;;4.65;3.00;;;;;;;29.84;45.75;100983.31;4990416;28;20563;-70
2023/08/11 11:11:43;;;;;;;3.35;2.67;;;;;;;29.91;44.17;100981.13;4981456;28;20723;-70
2023/08/11 11:14:10;;;;;;;5.28;2.90;;;;;;;29.88;43.19;100968.53;4989892;28;20304;-71
2023/08/11 11:16:37;;;;;;;2.80;2.50;;;;;;;29.92;44.45;100969.22;4990606;28;20236;-71
2023/08/11 11:19:05;;;;;;;6.13;3.00;;;;;;;30.09;44.00;100965.56;4990304;28;20267;-72
2023/08/11 11:21:34;;;;;;;4.38;2.97;;;;;;;29.97;43.31;100958.03;4982568;28;20220;-71